Terminal Aerodrome Forecast
Issued by NWS Duluth, MN

Home | Current Version | Previous Version | Text Only | Print | Product List | Glossary On
Versions: 1 2 3 4 5 6 7 8 9 10 11 12 13 14 15 16 17 18 19 20 21 22 23
000
FTUS43 KDLH 041138
TAFDLH
TAF
KDLH 041138Z 0412/0512 31006KT P6SM SCT050
     FM041800 33008KT P6SM BKN060
     FM050100 03005KT P6SM BKN050
     FM050700 VRB03KT P6SM FEW040=

USA.gov is the U.S. government's official web portal to all federal, state and local government web resources and services.